createdAt,value
2019-04-22T00:01:56.972Z,65.40
2019-04-22T00:04:40.295Z,64.60
2019-04-22T00:07:23.659Z,64.50
2019-04-22T00:09:52.757Z,64.80
2019-04-22T00:12:32.705Z,64.90
2019-04-22T00:14:54.200Z,64.70
2019-04-22T00:17:31.696Z,64.90
2019-04-22T00:22:29.162Z,65.90
2019-04-22T00:25:03.303Z,65.30
2019-04-22T00:27:37.283Z,64.10
2019-04-22T00:30:09.159Z,65.30
2019-04-22T00:32:38.266Z,66.40
2019-04-22T00:35:05.745Z,66.10
2019-04-22T00:37:46.247Z,66.20
2019-04-22T00:40:14.869Z,65.90
2019-04-22T00:42:41.288Z,66.50
2019-04-22T00:45:13.074Z,67.10
2019-04-22T00:48:06.850Z,67.70
2019-04-22T00:52:47.552Z,67.30
2019-04-22T00:55:20.430Z,67.10
2019-04-22T00:57:51.880Z,68.10
2019-04-22T01:00:21.302Z,68.20
2019-04-22T01:02:59.193Z,68.90
2019-04-22T01:08:04.219Z,68.60
2019-04-22T01:10:26.396Z,68.30
2019-04-22T01:12:58.395Z,68.50
2019-04-22T01:15:28.927Z,68.90
2019-04-22T01:17:57.770Z,68.80
2019-04-22T01:20:54.551Z,69.10
2019-04-22T01:23:01.935Z,68.70
2019-04-22T01:25:28.074Z,67.90
2019-04-22T01:27:54.789Z,68.70
2019-04-22T01:30:20.981Z,69.50
2019-04-22T01:32:45.725Z,70.00
2019-04-22T01:35:27.507Z,70.00
2019-04-22T01:38:01.572Z,69.40
2019-04-22T01:40:45.497Z,69.60
2019-04-22T01:43:19.933Z,70.40
2019-04-22T01:45:39.331Z,69.80
2019-04-22T01:48:12.809Z,69.40
2019-04-22T01:50:48.527Z,69.00
2019-04-22T01:53:27.536Z,69.20
2019-04-22T01:55:43.948Z,69.20
2019-04-22T01:58:15.284Z,69.60
2019-04-22T02:00:44.375Z,69.60
2019-04-22T02:03:19.041Z,69.70
2019-04-22T02:05:50.786Z,69.60
2019-04-22T02:08:31.354Z,68.90
2019-04-22T02:10:54.790Z,69.40
2019-04-22T02:13:26.876Z,69.90
2019-04-22T02:18:31.795Z,70.70
2019-04-22T02:20:55.340Z,70.10
2019-04-22T02:28:47.546Z,69.90
2019-04-22T02:43:59.829Z,69.90
2019-04-22T02:46:39.717Z,70.00
2019-04-22T03:06:33.255Z,71.50
2019-04-22T03:11:34.041Z,70.70
2019-04-22T03:19:05.785Z,71.50
2019-04-22T03:21:34.288Z,71.50
2019-04-22T03:42:05.701Z,73.10
2019-04-22T03:52:18.683Z,72.20
2019-04-22T03:54:40.342Z,72.20
2019-04-22T04:02:16.186Z,72.50
2019-04-22T04:14:46.628Z,66.20
2019-04-22T04:20:03.292Z,67.50
2019-04-22T04:22:21.993Z,69.60
2019-04-22T04:37:41.008Z,72.10
2019-04-22T04:40:16.695Z,72.40
2019-04-22T04:42:32.995Z,72.40
2019-04-22T04:45:18.977Z,73.20
2019-04-22T04:47:43.974Z,73.50
2019-04-22T04:49:57.036Z,73.90
2019-04-22T04:57:41.037Z,73.90
2019-04-22T05:00:32.335Z,74.20
2019-04-22T05:02:37.870Z,74.30
2019-04-22T05:07:38.530Z,74.00
2019-04-22T05:10:13.391Z,74.60
2019-04-22T05:12:45.946Z,75.30
2019-04-22T05:15:04.195Z,75.70
2019-04-22T05:17:34.939Z,76.10
2019-04-22T05:20:12.914Z,75.90
2019-04-22T05:22:37.736Z,76.00
2019-04-22T05:25:04.803Z,76.50
2019-04-22T05:27:45.332Z,76.10
2019-04-22T05:32:39.710Z,76.50
2019-04-22T05:35:10.547Z,76.70
2019-04-22T05:40:17.659Z,77.50
2019-04-22T05:42:39.463Z,77.60
2019-04-22T05:45:25.434Z,77.90
2019-04-22T05:47:42.605Z,77.80
2019-04-22T05:50:07.557Z,77.60
2019-04-22T05:52:46.896Z,77.90
2019-04-22T05:57:51.025Z,77.20
2019-04-22T06:00:22.428Z,77.30
2019-04-22T06:02:53.470Z,77.90
2019-04-22T06:05:24.497Z,77.50
2019-04-22T06:07:59.451Z,77.70
2019-04-22T06:10:26.293Z,77.50
2019-04-22T06:12:59.231Z,77.20
2019-04-22T06:15:28.834Z,77.30
2019-04-22T06:18:25.522Z,77.30
2019-04-22T06:20:42.056Z,76.80
2019-04-22T06:25:54.990Z,76.60
2019-04-22T06:28:13.577Z,77.10
2019-04-22T06:30:43.655Z,77.30
2019-04-22T06:33:13.236Z,77.10
2019-04-22T06:35:43.887Z,76.60
2019-04-22T06:40:47.019Z,74.00
2019-04-22T06:43:28.271Z,73.60
2019-04-22T06:45:39.917Z,73.70
2019-04-22T06:48:19.298Z,73.40
2019-04-22T06:50:51.011Z,74.20
2019-04-22T06:53:16.938Z,73.60
2019-04-22T06:58:36.835Z,72.50
2019-04-22T07:00:49.419Z,72.50
2019-04-22T07:03:34.660Z,72.60
2019-04-22T07:05:52.392Z,72.60
2019-04-22T07:10:50.429Z,71.40
2019-04-22T07:13:27.365Z,71.60
2019-04-22T07:16:13.200Z,71.50
2019-04-22T07:18:31.464Z,71.90
2019-04-22T07:21:01.504Z,71.80
2019-04-22T07:25:58.662Z,72.50
2019-04-22T07:28:47.588Z,72.10
2019-04-22T07:31:08.109Z,72.20
2019-04-22T07:33:39.407Z,72.70
2019-04-22T07:36:41.817Z,72.80
2019-04-22T07:38:29.950Z,73.00
2019-04-22T07:41:05.447Z,72.90
2019-04-22T07:46:13.797Z,72.20
2019-04-22T07:48:44.874Z,72.20
2019-04-22T07:51:13.401Z,72.30
2019-04-22T07:53:40.444Z,71.90
2019-04-22T07:56:18.832Z,72.80
2019-04-22T07:58:51.831Z,71.70
2019-04-22T08:01:20.182Z,72.60
2019-04-22T08:04:16.202Z,71.90
2019-04-22T08:08:53.541Z,72.00
2019-04-22T08:11:37.537Z,72.90
2019-04-22T08:13:54.928Z,71.30
2019-04-22T08:16:23.179Z,71.70
2019-04-22T08:18:59.863Z,71.30
2019-04-22T08:21:22.016Z,70.10
2019-04-22T08:23:56.906Z,70.70
2019-04-22T08:26:30.401Z,70.10
2019-04-22T08:28:57.929Z,70.10
2019-04-22T08:34:03.014Z,69.40
2019-04-22T08:36:31.997Z,69.30
2019-04-22T08:39:08.277Z,69.00
2019-04-22T08:41:37.414Z,68.90
2019-04-22T08:44:10.881Z,68.20
2019-04-22T08:49:05.366Z,69.40
2019-04-22T08:51:40.237Z,68.40
2019-04-22T08:54:13.604Z,66.60
2019-04-22T08:56:44.968Z,65.90
2019-04-22T09:01:39.171Z,65.70
2019-04-22T09:04:12.256Z,65.50
2019-04-22T09:07:03.614Z,66.90
2019-04-22T09:09:24.322Z,65.60
2019-04-22T09:14:24.345Z,64.90
2019-04-22T09:16:48.583Z,64.00
2019-04-22T09:19:17.845Z,65.50
2019-04-22T09:21:54.456Z,64.50
2019-04-22T09:24:23.455Z,64.20
2019-04-22T09:26:53.929Z,61.70
2019-04-22T09:29:29.761Z,61.20
2019-04-22T09:32:01.685Z,60.90
2019-04-22T09:34:27.712Z,60.70
2019-04-22T09:37:09.017Z,60.40
2019-04-22T09:41:57.217Z,59.80
2019-04-22T09:44:36.286Z,59.00
2019-04-22T09:47:21.136Z,59.30
2019-04-22T09:49:37.059Z,60.20
2019-04-22T09:52:02.964Z,59.00
2019-04-22T09:57:11.595Z,59.00
2019-04-22T09:59:48.487Z,59.90
2019-04-22T10:02:19.738Z,60.30
2019-04-22T10:04:41.941Z,58.50
2019-04-22T10:07:16.460Z,59.50
2019-04-22T10:12:19.259Z,58.30
2019-04-22T10:14:48.062Z,58.40
2019-04-22T10:17:12.410Z,57.90
2019-04-22T10:19:48.823Z,58.00
2019-04-22T10:22:19.688Z,59.00
2019-04-22T10:24:44.654Z,59.30
2019-04-22T10:27:24.356Z,57.40
2019-04-22T10:29:54.152Z,58.50
2019-04-22T10:32:22.274Z,57.50
2019-04-22T10:34:40.900Z,56.30
2019-04-22T10:37:10.990Z,57.50
2019-04-22T10:39:47.135Z,56.30
2019-04-22T10:42:11.185Z,56.50
2019-04-22T10:44:41.458Z,56.30
2019-04-22T10:47:11.902Z,55.80
2019-04-22T10:49:42.535Z,55.80
2019-04-22T10:52:12.959Z,56.00
2019-04-22T10:54:43.255Z,56.90
2019-04-22T10:57:13.873Z,56.20
2019-04-22T10:59:44.752Z,55.60
2019-04-22T11:02:14.187Z,55.90
2019-04-22T11:04:43.992Z,56.10
2019-04-22T11:07:14.894Z,56.00
2019-04-22T11:09:52.078Z,54.60
2019-04-22T11:12:19.204Z,56.00
2019-04-22T11:14:47.567Z,55.40
2019-04-22T11:17:17.742Z,55.80
2019-04-22T11:19:47.925Z,56.10
2019-04-22T11:22:22.977Z,55.80
2019-04-22T11:24:48.631Z,55.50
2019-04-22T11:27:18.892Z,56.00
2019-04-22T11:29:49.713Z,55.30
2019-04-22T11:32:20.241Z,54.60
2019-04-22T11:34:51.109Z,54.20
2019-04-22T11:37:20.778Z,54.00
2019-04-22T11:40:02.137Z,53.90
2019-04-22T11:42:22.251Z,55.00
2019-04-22T11:44:53.077Z,54.70
2019-04-22T11:47:23.403Z,54.60
2019-04-22T11:49:54.350Z,54.10
2019-04-22T11:52:24.675Z,54.10
2019-04-22T11:54:54.918Z,54.50
2019-04-22T11:57:25.374Z,54.60
2019-04-22T11:59:54.798Z,54.20
2019-04-22T12:02:27.177Z,54.30
2019-04-22T12:04:58.077Z,54.70
2019-04-22T12:07:30.015Z,54.50
2019-04-22T12:09:59.770Z,54.00
2019-04-22T12:12:29.934Z,55.60
2019-04-22T12:15:00.783Z,55.30
2019-04-22T12:17:30.162Z,55.40
2019-04-22T12:20:00.466Z,54.40
2019-04-22T12:22:31.251Z,54.80
2019-04-22T12:25:00.932Z,54.60
2019-04-22T12:27:30.376Z,54.50
2019-04-22T12:30:00.816Z,53.70
2019-04-22T12:32:31.593Z,53.50
2019-04-22T12:35:01.855Z,53.30
2019-04-22T12:37:39.865Z,53.50
2019-04-22T12:40:02.672Z,53.70
2019-04-22T12:42:33.250Z,54.50
2019-04-22T12:45:02.627Z,54.00
2019-04-22T12:47:33.536Z,54.00
2019-04-22T12:50:12.865Z,53.70
2019-04-22T12:52:41.306Z,54.40
2019-04-22T12:55:06.039Z,54.80
2019-04-22T12:57:36.748Z,53.50
2019-04-22T13:00:08.003Z,53.20
2019-04-22T13:02:38.611Z,54.30
2019-04-22T13:05:10.089Z,55.10
2019-04-22T13:07:39.917Z,54.10
2019-04-22T13:10:11.238Z,54.40
2019-04-22T13:12:40.489Z,55.00
2019-04-22T13:15:11.791Z,54.00
2019-04-22T13:17:42.163Z,54.40
2019-04-22T13:20:16.138Z,54.20
2019-04-22T13:22:45.025Z,52.90
2019-04-22T13:25:15.609Z,51.30
2019-04-22T13:27:44.993Z,51.90
2019-04-22T13:30:16.422Z,51.90
2019-04-22T13:32:46.970Z,51.90
2019-04-22T13:35:19.528Z,51.70
2019-04-22T13:37:48.744Z,51.10
2019-04-22T13:40:19.226Z,50.70
2019-04-22T13:42:49.190Z,50.50
2019-04-22T13:45:20.135Z,51.40
2019-04-22T13:48:08.735Z,50.40
2019-04-22T13:51:00.989Z,50.60
2019-04-22T13:55:54.731Z,51.60
2019-04-22T13:58:17.205Z,51.70
2019-04-22T14:00:52.180Z,52.30
2019-04-22T14:03:44.702Z,50.90
2019-04-22T14:06:31.215Z,50.80
2019-04-22T14:09:01.165Z,50.70
2019-04-22T14:11:40.029Z,51.20
2019-04-22T14:14:02.873Z,51.20
2019-04-22T14:16:33.155Z,51.10
2019-04-22T14:19:02.477Z,51.00
2019-04-22T14:21:32.671Z,50.70
2019-04-22T14:24:02.687Z,50.90
2019-04-22T14:26:44.176Z,51.40
2019-04-22T14:29:04.116Z,50.10
2019-04-22T14:31:33.513Z,50.50
2019-04-22T14:34:05.402Z,50.20
2019-04-22T14:36:35.142Z,50.20
2019-04-22T14:39:08.089Z,51.60
2019-04-22T14:41:55.343Z,50.60
2019-04-22T14:45:13.422Z,50.70
2019-04-22T14:47:10.849Z,50.50
2019-04-22T14:49:37.081Z,50.90
2019-04-22T14:52:10.833Z,52.40
2019-04-22T14:54:26.567Z,51.10
2019-04-22T14:56:44.524Z,52.40
2019-04-22T14:59:13.875Z,50.70
2019-04-22T15:01:43.492Z,50.40
2019-04-22T15:04:13.354Z,50.90
2019-04-22T15:06:45.151Z,50.80
2019-04-22T15:09:14.397Z,50.00
2019-04-22T15:11:55.796Z,50.80
2019-04-22T15:14:15.185Z,51.10
2019-04-22T15:17:04.966Z,49.80
2019-04-22T15:19:49.670Z,49.80
2019-04-22T15:22:19.095Z,49.80
2019-04-22T15:24:48.373Z,50.20
2019-04-22T15:27:18.471Z,49.90
2019-04-22T15:29:47.842Z,49.50
2019-04-22T15:32:17.581Z,49.70
2019-04-22T15:34:47.062Z,49.90
2019-04-22T15:37:16.290Z,49.80
2019-04-22T15:39:45.760Z,50.50
2019-04-22T15:42:22.743Z,49.80
2019-04-22T15:44:46.283Z,50.40
2019-04-22T15:47:16.966Z,48.70
2019-04-22T15:49:47.867Z,48.10
2019-04-22T15:52:18.798Z,48.50
2019-04-22T15:54:51.763Z,48.10
2019-04-22T15:57:20.389Z,47.90
2019-04-22T16:00:06.857Z,48.40
2019-04-22T16:02:21.485Z,48.90
2019-04-22T16:04:52.597Z,48.70
2019-04-22T16:07:25.276Z,49.00
2019-04-22T16:09:53.958Z,48.50
2019-04-22T16:12:30.856Z,48.90
2019-04-22T16:14:57.056Z,49.70
2019-04-22T16:17:26.491Z,49.90
2019-04-22T16:19:57.171Z,49.70
2019-04-22T16:22:28.954Z,49.30
2019-04-22T16:25:09.037Z,48.40
2019-04-22T16:27:38.556Z,48.30
2019-04-22T16:30:09.638Z,47.90
2019-04-22T16:32:39.164Z,48.50
2019-04-22T16:35:10.550Z,48.40
2019-04-22T16:37:40.940Z,47.70
2019-04-22T16:40:10.445Z,47.50
2019-04-22T16:42:45.894Z,48.60
2019-04-22T16:45:11.624Z,47.00
2019-04-22T16:47:46.848Z,47.60
2019-04-22T16:50:16.505Z,47.20
2019-04-22T16:52:46.389Z,46.70
2019-04-22T16:55:18.990Z,47.20
2019-04-22T16:57:48.468Z,47.20
2019-04-22T17:00:18.467Z,46.30
2019-04-22T17:03:07.159Z,46.50
2019-04-22T17:06:11.839Z,47.30
2019-04-22T17:08:42.552Z,47.50
2019-04-22T17:11:13.576Z,47.30
2019-04-22T17:13:44.539Z,47.80
2019-04-22T17:16:15.998Z,47.50
2019-04-22T17:18:47.146Z,46.90
2019-04-22T17:21:17.575Z,46.80
2019-04-22T17:23:47.633Z,47.00
2019-04-22T17:26:18.699Z,47.20
2019-04-22T17:28:49.383Z,46.70
2019-04-22T17:31:18.804Z,46.90
2019-04-22T17:33:48.850Z,46.90
2019-04-22T17:36:18.360Z,47.30
2019-04-22T17:38:56.321Z,47.90
2019-04-22T17:41:30.202Z,47.10
2019-04-22T17:44:15.273Z,47.40
2019-04-22T17:46:58.220Z,47.90
2019-04-22T17:49:54.056Z,47.70
2019-04-22T17:52:21.504Z,47.30
2019-04-22T17:54:50.451Z,48.00
2019-04-22T17:57:21.599Z,48.00
2019-04-22T17:59:53.446Z,48.10
2019-04-22T18:02:22.650Z,47.70
2019-04-22T18:04:45.668Z,48.20
2019-04-22T18:07:35.478Z,47.80
2019-04-22T18:10:23.785Z,48.40
2019-04-22T18:15:04.011Z,48.20
2019-04-22T18:17:36.817Z,48.30
2019-04-22T18:19:58.345Z,48.00
2019-04-22T18:22:23.081Z,48.60
2019-04-22T18:24:58.491Z,48.70
2019-04-22T18:27:48.869Z,49.00
2019-04-22T18:29:59.990Z,49.70
2019-04-22T18:32:37.139Z,49.30
2019-04-22T18:35:00.460Z,49.20
2019-04-22T18:37:40.062Z,49.60
2019-04-22T18:40:10.230Z,49.80
2019-04-22T18:42:48.812Z,49.90
2019-04-22T18:45:29.590Z,49.80
2019-04-22T18:47:43.233Z,50.00
2019-04-22T18:50:12.820Z,49.90
2019-04-22T18:53:20.200Z,49.90
2019-04-22T18:55:47.374Z,50.30
2019-04-22T18:58:16.363Z,50.80
2019-04-22T19:00:34.232Z,50.70
2019-04-22T19:03:11.687Z,50.90
2019-04-22T19:05:55.799Z,50.70
2019-04-22T19:08:29.287Z,51.10
2019-04-22T19:11:07.378Z,51.10
2019-04-22T19:16:17.100Z,51.70
2019-04-22T19:18:36.347Z,52.10
2019-04-22T19:21:07.904Z,52.50
2019-04-22T19:23:33.255Z,52.60
2019-04-22T19:26:08.193Z,53.30
2019-04-22T19:28:40.445Z,53.30
2019-04-22T19:31:14.012Z,53.50
2019-04-22T19:33:40.522Z,53.60
2019-04-22T19:36:14.695Z,54.60
2019-04-22T19:38:34.022Z,54.50
2019-04-22T19:41:19.646Z,55.10
2019-04-22T19:43:46.933Z,55.20
2019-04-22T19:46:15.234Z,55.50
2019-04-22T19:48:50.049Z,56.10
2019-04-22T19:51:24.132Z,56.10
2019-04-22T19:53:52.479Z,56.60
2019-04-22T19:56:17.527Z,56.20
2019-04-22T19:58:49.278Z,56.40
2019-04-22T20:01:48.128Z,56.30
2019-04-22T20:04:31.442Z,56.50
2019-04-22T20:07:05.934Z,57.00
2019-04-22T20:09:43.469Z,57.40
2019-04-22T20:12:15.678Z,57.80
2019-04-22T20:14:42.170Z,58.10
2019-04-22T20:17:11.441Z,58.20
2019-04-22T20:19:51.225Z,58.50
2019-04-22T20:22:12.703Z,58.90
2019-04-22T20:24:54.361Z,58.60
2019-04-22T20:28:01.278Z,58.80
2019-04-22T20:30:29.579Z,58.90
2019-04-22T20:32:56.221Z,59.20
2019-04-22T20:35:33.075Z,59.70
2019-04-22T20:38:02.913Z,59.50
2019-04-22T20:40:38.273Z,59.40
2019-04-22T20:43:13.629Z,59.90
2019-04-22T20:45:39.723Z,60.00
2019-04-22T20:47:58.710Z,59.90
2019-04-22T20:50:41.758Z,59.90
2019-04-22T20:53:18.785Z,60.40
2019-04-22T20:55:42.174Z,60.30
2019-04-22T20:58:15.311Z,60.70
2019-04-22T21:00:40.273Z,60.60
2019-04-22T21:03:06.603Z,60.90
2019-04-22T21:05:40.260Z,61.10
2019-04-22T21:08:19.012Z,61.10
2019-04-22T21:10:44.489Z,61.50
2019-04-22T21:13:17.015Z,61.30
2019-04-22T21:15:57.796Z,60.30
2019-04-22T21:18:19.470Z,61.50
2019-04-22T21:20:56.236Z,61.90
2019-04-22T21:23:22.980Z,62.00
2019-04-22T21:25:57.229Z,61.90
2019-04-22T21:28:25.881Z,62.60
2019-04-22T21:30:56.916Z,62.80
2019-04-22T21:33:19.558Z,62.80
2019-04-22T21:36:12.166Z,62.80
2019-04-22T21:38:34.501Z,62.90
2019-04-22T21:41:01.785Z,63.20
2019-04-22T21:43:36.954Z,63.30
2019-04-22T21:46:09.819Z,63.30
2019-04-22T21:51:10.825Z,63.60
2019-04-22T21:53:45.326Z,63.70
2019-04-22T21:56:29.007Z,64.20
2019-04-22T21:58:53.041Z,63.90
2019-04-22T22:01:33.601Z,64.00
2019-04-22T22:03:56.994Z,64.10
2019-04-22T22:06:15.182Z,64.70
2019-04-22T22:08:57.840Z,65.00
2019-04-22T22:11:32.917Z,64.90
2019-04-22T22:14:02.391Z,64.70
2019-04-22T22:16:27.353Z,65.30
2019-04-22T22:19:00.825Z,65.50
2019-04-22T22:21:42.044Z,65.60
2019-04-22T22:24:11.551Z,65.60
2019-04-22T22:26:39.959Z,65.80
2019-04-22T22:29:15.660Z,65.80
2019-04-22T22:31:40.183Z,65.90
2019-04-22T22:34:12.877Z,66.10
2019-04-22T22:36:33.264Z,66.30
2019-04-22T22:39:05.679Z,66.10
2019-04-22T22:41:21.642Z,66.40
2019-04-22T22:43:52.829Z,66.50
2019-04-22T22:46:31.933Z,66.80
2019-04-22T22:49:18.695Z,66.60
2019-04-22T22:51:53.169Z,66.80
2019-04-22T22:54:21.412Z,66.90
2019-04-22T22:56:56.190Z,67.00
2019-04-22T22:59:16.410Z,67.40
2019-04-22T23:02:04.665Z,67.30
2019-04-22T23:04:26.387Z,67.10
2019-04-22T23:07:13.078Z,67.30
2019-04-22T23:09:22.989Z,67.20
2019-04-22T23:12:10.232Z,67.50
2019-04-22T23:14:30.046Z,67.50
2019-04-22T23:16:41.931Z,67.50
2019-04-22T23:19:05.123Z,67.60
2019-04-22T23:21:41.968Z,67.60
2019-04-22T23:24:29.844Z,68.00
2019-04-22T23:27:16.079Z,67.90
2019-04-22T23:30:02.570Z,67.80
2019-04-22T23:32:35.731Z,68.20
2019-04-22T23:35:36.765Z,68.40
2019-04-22T23:38:07.401Z,68.40
2019-04-22T23:40:38.610Z,68.50
2019-04-22T23:43:17.895Z,68.60
2019-04-22T23:45:45.224Z,68.60
2019-04-22T23:48:11.709Z,68.80
2019-04-22T23:50:50.854Z,69.00
2019-04-22T23:53:55.607Z,68.90
2019-04-22T23:56:03.169Z,68.60
2019-04-22T23:58:48.139Z,69.50
